sensor_id;sensor_type;location;lat;lon;timestamp;P1;durP1;ratioP1;P2;durP2;ratioP2
26106;SDS011;13866;50.748;12.630;2022-09-17T00:00:46;1.80;;;1.80;;
26106;SDS011;13866;50.748;12.630;2022-09-17T00:03:13;3.60;;;1.73;;
26106;SDS011;13866;50.748;12.630;2022-09-17T00:05:39;4.27;;;1.80;;
26106;SDS011;13866;50.748;12.630;2022-09-17T00:08:05;1.90;;;1.50;;
26106;SDS011;13866;50.748;12.630;2022-09-17T00:10:32;5.87;;;2.90;;
26106;SDS011;13866;50.748;12.630;2022-09-17T00:13:02;1.53;;;1.47;;
26106;SDS011;13866;50.748;12.630;2022-09-17T00:15:28;2.20;;;1.83;;
26106;SDS011;13866;50.748;12.630;2022-09-17T00:17:54;1.50;;;1.40;;
26106;SDS011;13866;50.748;12.630;2022-09-17T00:20:21;5.67;;;2.10;;
26106;SDS011;13866;50.748;12.630;2022-09-17T00:22:48;3.20;;;1.57;;
26106;SDS011;13866;50.748;12.630;2022-09-17T00:25:13;2.37;;;2.10;;
26106;SDS011;13866;50.748;12.630;2022-09-17T00:27:39;3.90;;;1.47;;
26106;SDS011;13866;50.748;12.630;2022-09-17T00:30:04;4.10;;;1.93;;
26106;SDS011;13866;50.748;12.630;2022-09-17T00:32:30;3.43;;;1.83;;
26106;SDS011;13866;50.748;12.630;2022-09-17T00:34:56;5.30;;;2.00;;
26106;SDS011;13866;50.748;12.630;2022-09-17T00:37:21;2.73;;;1.93;;
26106;SDS011;13866;50.748;12.630;2022-09-17T00:39:47;1.50;;;1.50;;
26106;SDS011;13866;50.748;12.630;2022-09-17T00:42:13;2.10;;;1.33;;
26106;SDS011;13866;50.748;12.630;2022-09-17T00:44:57;2.10;;;1.80;;
26106;SDS011;13866;50.748;12.630;2022-09-17T00:47:26;7.53;;;2.07;;
26106;SDS011;13866;50.748;12.630;2022-09-17T00:50:00;5.17;;;1.67;;
26106;SDS011;13866;50.748;12.630;2022-09-17T00:52:51;1.93;;;1.60;;
26106;SDS011;13866;50.748;12.630;2022-09-17T00:55:28;6.80;;;2.37;;
26106;SDS011;13866;50.748;12.630;2022-09-17T00:57:58;6.80;;;1.57;;
26106;SDS011;13866;50.748;12.630;2022-09-17T01:00:27;3.83;;;1.60;;
26106;SDS011;13866;50.748;12.630;2022-09-17T01:02:55;5.37;;;1.87;;
26106;SDS011;13866;50.748;12.630;2022-09-17T01:05:27;6.60;;;1.70;;
26106;SDS011;13866;50.748;12.630;2022-09-17T01:08:01;2.43;;;2.33;;
26106;SDS011;13866;50.748;12.630;2022-09-17T01:19:11;18.30;;;1.80;;
26106;SDS011;13866;50.748;12.630;2022-09-17T01:22:07;4.43;;;1.47;;
26106;SDS011;13866;50.748;12.630;2022-09-17T01:24:45;2.63;;;1.70;;
26106;SDS011;13866;50.748;12.630;2022-09-17T01:33:27;1.57;;;1.57;;
26106;SDS011;13866;50.748;12.630;2022-09-17T01:36:03;2.60;;;1.60;;
26106;SDS011;13866;50.748;12.630;2022-09-17T01:39:06;5.93;;;1.80;;
26106;SDS011;13866;50.748;12.630;2022-09-17T01:41:53;6.90;;;2.10;;
26106;SDS011;13866;50.748;12.630;2022-09-17T01:44:36;2.20;;;1.80;;
26106;SDS011;13866;50.748;12.630;2022-09-17T01:47:33;3.30;;;1.80;;
26106;SDS011;13866;50.748;12.630;2022-09-17T01:50:07;4.13;;;1.50;;
26106;SDS011;13866;50.748;12.630;2022-09-17T01:52:41;1.80;;;1.70;;
26106;SDS011;13866;50.748;12.630;2022-09-17T01:55:13;2.27;;;2.13;;
26106;SDS011;13866;50.748;12.630;2022-09-17T01:57:48;3.40;;;2.10;;
26106;SDS011;13866;50.748;12.630;2022-09-17T02:00:17;2.10;;;2.00;;
26106;SDS011;13866;50.748;12.630;2022-09-17T02:02:52;1.70;;;1.60;;
26106;SDS011;13866;50.748;12.630;2022-09-17T02:05:26;11.20;;;2.30;;
26106;SDS011;13866;50.748;12.630;2022-09-17T02:08:22;2.70;;;1.57;;
26106;SDS011;13866;50.748;12.630;2022-09-17T02:11:02;2.00;;;1.70;;
26106;SDS011;13866;50.748;12.630;2022-09-17T02:13:35;1.90;;;1.70;;
26106;SDS011;13866;50.748;12.630;2022-09-17T02:16:23;4.27;;;1.57;;
26106;SDS011;13866;50.748;12.630;2022-09-17T02:23:58;8.27;;;2.00;;
26106;SDS011;13866;50.748;12.630;2022-09-17T02:26:27;6.43;;;1.90;;
26106;SDS011;13866;50.748;12.630;2022-09-17T02:28:54;2.47;;;1.67;;
26106;SDS011;13866;50.748;12.630;2022-09-17T02:31:24;1.67;;;1.20;;
26106;SDS011;13866;50.748;12.630;2022-09-17T02:33:50;1.77;;;1.67;;
26106;SDS011;13866;50.748;12.630;2022-09-17T02:36:21;6.50;;;1.73;;
26106;SDS011;13866;50.748;12.630;2022-09-17T02:38:53;9.03;;;2.30;;
26106;SDS011;13866;50.748;12.630;2022-09-17T02:41:24;5.20;;;1.60;;
26106;SDS011;13866;50.748;12.630;2022-09-17T02:44:01;14.00;;;2.47;;
26106;SDS011;13866;50.748;12.630;2022-09-17T02:46:57;4.10;;;2.30;;
26106;SDS011;13866;50.748;12.630;2022-09-17T02:55:22;3.97;;;2.70;;
26106;SDS011;13866;50.748;12.630;2022-09-17T02:57:59;2.53;;;2.13;;
26106;SDS011;13866;50.748;12.630;2022-09-17T03:00:30;2.80;;;2.70;;
26106;SDS011;13866;50.748;12.630;2022-09-17T03:03:00;5.73;;;2.30;;
26106;SDS011;13866;50.748;12.630;2022-09-17T03:05:32;3.70;;;2.60;;
26106;SDS011;13866;50.748;12.630;2022-09-17T03:08:01;2.80;;;2.70;;
26106;SDS011;13866;50.748;12.630;2022-09-17T03:10:27;4.27;;;2.93;;
26106;SDS011;13866;50.748;12.630;2022-09-17T03:12:54;3.87;;;2.60;;
26106;SDS011;13866;50.748;12.630;2022-09-17T03:15:19;7.27;;;3.27;;
26106;SDS011;13866;50.748;12.630;2022-09-17T03:17:45;3.30;;;3.07;;
26106;SDS011;13866;50.748;12.630;2022-09-17T03:20:10;5.50;;;3.70;;
26106;SDS011;13866;50.748;12.630;2022-09-17T03:22:36;4.60;;;3.10;;
26106;SDS011;13866;50.748;12.630;2022-09-17T03:25:01;3.30;;;3.20;;
26106;SDS011;13866;50.748;12.630;2022-09-17T03:27:27;5.10;;;3.40;;
26106;SDS011;13866;50.748;12.630;2022-09-17T03:29:52;3.73;;;3.67;;
26106;SDS011;13866;50.748;12.630;2022-09-17T03:32:18;5.00;;;3.30;;
26106;SDS011;13866;50.748;12.630;2022-09-17T03:34:43;3.60;;;3.50;;
26106;SDS011;13866;50.748;12.630;2022-09-17T03:37:10;3.73;;;3.53;;
26106;SDS011;13866;50.748;12.630;2022-09-17T03:39:36;4.87;;;4.63;;
26106;SDS011;13866;50.748;12.630;2022-09-17T03:42:02;7.97;;;3.30;;
26106;SDS011;13866;50.748;12.630;2022-09-17T03:44:28;3.87;;;3.77;;
26106;SDS011;13866;50.748;12.630;2022-09-17T03:46:53;5.13;;;4.00;;
26106;SDS011;13866;50.748;12.630;2022-09-17T03:49:19;4.53;;;4.43;;
26106;SDS011;13866;50.748;12.630;2022-09-17T03:51:44;10.90;;;4.70;;
26106;SDS011;13866;50.748;12.630;2022-09-17T03:54:10;6.40;;;4.77;;
26106;SDS011;13866;50.748;12.630;2022-09-17T03:56:36;11.00;;;6.20;;
26106;SDS011;13866;50.748;12.630;2022-09-17T03:59:02;5.50;;;4.80;;
26106;SDS011;13866;50.748;12.630;2022-09-17T04:01:27;4.90;;;4.50;;
26106;SDS011;13866;50.748;12.630;2022-09-17T04:03:53;4.23;;;4.00;;
26106;SDS011;13866;50.748;12.630;2022-09-17T04:06:19;4.67;;;4.27;;
26106;SDS011;13866;50.748;12.630;2022-09-17T04:08:44;5.17;;;4.83;;
26106;SDS011;13866;50.748;12.630;2022-09-17T04:11:10;5.20;;;4.80;;
26106;SDS011;13866;50.748;12.630;2022-09-17T04:13:35;6.13;;;5.60;;
26106;SDS011;13866;50.748;12.630;2022-09-17T04:16:01;5.87;;;5.67;;
26106;SDS011;13866;50.748;12.630;2022-09-17T04:18:27;6.80;;;5.20;;
26106;SDS011;13866;50.748;12.630;2022-09-17T04:20:52;8.37;;;4.83;;
26106;SDS011;13866;50.748;12.630;2022-09-17T04:23:18;5.50;;;5.20;;
26106;SDS011;13866;50.748;12.630;2022-09-17T04:25:44;4.90;;;4.80;;
26106;SDS011;13866;50.748;12.630;2022-09-17T04:28:09;11.30;;;5.27;;
26106;SDS011;13866;50.748;12.630;2022-09-17T04:30:35;6.00;;;5.80;;
26106;SDS011;13866;50.748;12.630;2022-09-17T04:33:02;6.73;;;5.93;;
26106;SDS011;13866;50.748;12.630;2022-09-17T04:35:28;5.43;;;5.13;;
26106;SDS011;13866;50.748;12.630;2022-09-17T04:37:54;5.80;;;5.27;;
26106;SDS011;13866;50.748;12.630;2022-09-17T04:40:21;8.60;;;5.83;;
26106;SDS011;13866;50.748;12.630;2022-09-17T04:42:47;5.33;;;5.23;;
26106;SDS011;13866;50.748;12.630;2022-09-17T04:45:13;4.93;;;4.83;;
26106;SDS011;13866;50.748;12.630;2022-09-17T04:47:39;5.27;;;4.97;;
26106;SDS011;13866;50.748;12.630;2022-09-17T04:50:04;5.50;;;5.20;;
26106;SDS011;13866;50.748;12.630;2022-09-17T04:52:30;7.40;;;5.20;;
26106;SDS011;13866;50.748;12.630;2022-09-17T04:54:56;7.73;;;5.40;;
26106;SDS011;13866;50.748;12.630;2022-09-17T04:57:22;4.80;;;4.60;;
26106;SDS011;13866;50.748;12.630;2022-09-17T04:59:49;5.27;;;4.90;;
26106;SDS011;13866;50.748;12.630;2022-09-17T05:02:15;5.27;;;5.07;;
26106;SDS011;13866;50.748;12.630;2022-09-17T05:04:40;5.00;;;4.60;;
26106;SDS011;13866;50.748;12.630;2022-09-17T05:07:06;5.97;;;5.57;;
26106;SDS011;13866;50.748;12.630;2022-09-17T05:09:31;4.60;;;4.50;;
26106;SDS011;13866;50.748;12.630;2022-09-17T05:11:56;5.97;;;5.60;;
26106;SDS011;13866;50.748;12.630;2022-09-17T05:14:22;5.53;;;5.33;;
26106;SDS011;13866;50.748;12.630;2022-09-17T05:16:47;4.60;;;4.40;;
26106;SDS011;13866;50.748;12.630;2022-09-17T05:19:13;5.40;;;5.20;;
26106;SDS011;13866;50.748;12.630;2022-09-17T05:21:38;4.80;;;4.60;;
26106;SDS011;13866;50.748;12.630;2022-09-17T05:24:04;6.07;;;5.40;;
26106;SDS011;13866;50.748;12.630;2022-09-17T05:26:29;5.20;;;5.07;;
26106;SDS011;13866;50.748;12.630;2022-09-17T05:28:55;6.63;;;6.33;;
26106;SDS011;13866;50.748;12.630;2022-09-17T05:31:20;5.40;;;5.00;;
26106;SDS011;13866;50.748;12.630;2022-09-17T05:33:46;6.33;;;6.03;;
26106;SDS011;13866;50.748;12.630;2022-09-17T05:36:11;5.70;;;5.33;;
26106;SDS011;13866;50.748;12.630;2022-09-17T05:38:37;5.00;;;4.80;;
26106;SDS011;13866;50.748;12.630;2022-09-17T05:41:03;5.27;;;5.07;;
26106;SDS011;13866;50.748;12.630;2022-09-17T05:43:30;3.97;;;3.87;;
26106;SDS011;13866;50.748;12.630;2022-09-17T05:45:59;4.50;;;4.10;;
26106;SDS011;13866;50.748;12.630;2022-09-17T05:48:26;3.70;;;3.70;;
26106;SDS011;13866;50.748;12.630;2022-09-17T05:50:53;3.30;;;3.30;;
26106;SDS011;13866;50.748;12.630;2022-09-17T05:53:19;2.97;;;2.97;;
26106;SDS011;13866;50.748;12.630;2022-09-17T05:55:45;4.00;;;3.10;;
26106;SDS011;13866;50.748;12.630;2022-09-17T05:58:14;2.80;;;2.70;;
26106;SDS011;13866;50.748;12.630;2022-09-17T06:00:41;3.20;;;2.60;;
26106;SDS011;13866;50.748;12.630;2022-09-17T06:03:08;2.23;;;2.23;;
26106;SDS011;13866;50.748;12.630;2022-09-17T06:05:35;2.17;;;2.17;;
26106;SDS011;13866;50.748;12.630;2022-09-17T06:08:01;2.93;;;2.70;;
26106;SDS011;13866;50.748;12.630;2022-09-17T06:10:26;1.77;;;1.77;;
26106;SDS011;13866;50.748;12.630;2022-09-17T06:12:55;2.43;;;2.43;;
26106;SDS011;13866;50.748;12.630;2022-09-17T06:15:21;2.30;;;2.20;;
26106;SDS011;13866;50.748;12.630;2022-09-17T06:17:47;2.27;;;2.17;;
26106;SDS011;13866;50.748;12.630;2022-09-17T06:20:12;2.50;;;2.50;;
26106;SDS011;13866;50.748;12.630;2022-09-17T06:22:40;2.53;;;2.43;;
26106;SDS011;13866;50.748;12.630;2022-09-17T06:25:05;1.70;;;1.70;;
26106;SDS011;13866;50.748;12.630;2022-09-17T06:27:32;1.90;;;1.80;;
26106;SDS011;13866;50.748;12.630;2022-09-17T06:29:58;2.20;;;2.20;;
26106;SDS011;13866;50.748;12.630;2022-09-17T06:32:24;1.73;;;1.63;;
26106;SDS011;13866;50.748;12.630;2022-09-17T06:34:50;1.90;;;1.80;;
26106;SDS011;13866;50.748;12.630;2022-09-17T06:37:15;2.37;;;2.27;;
26106;SDS011;13866;50.748;12.630;2022-09-17T06:39:41;1.83;;;1.73;;
26106;SDS011;13866;50.748;12.630;2022-09-17T06:42:06;9.00;;;2.33;;
26106;SDS011;13866;50.748;12.630;2022-09-17T06:44:32;2.37;;;2.27;;
26106;SDS011;13866;50.748;12.630;2022-09-17T06:46:57;1.67;;;1.67;;
26106;SDS011;13866;50.748;12.630;2022-09-17T06:49:23;2.40;;;2.20;;
26106;SDS011;13866;50.748;12.630;2022-09-17T06:51:48;2.70;;;2.50;;
26106;SDS011;13866;50.748;12.630;2022-09-17T06:54:14;1.90;;;1.80;;
26106;SDS011;13866;50.748;12.630;2022-09-17T06:56:39;3.30;;;3.00;;
26106;SDS011;13866;50.748;12.630;2022-09-17T06:59:05;2.43;;;2.23;;
26106;SDS011;13866;50.748;12.630;2022-09-17T07:01:30;15.50;;;3.03;;
26106;SDS011;13866;50.748;12.630;2022-09-17T07:03:56;2.43;;;2.33;;
26106;SDS011;13866;50.748;12.630;2022-09-17T07:06:22;3.83;;;2.87;;
26106;SDS011;13866;50.748;12.630;2022-09-17T07:08:47;22.17;;;2.70;;
26106;SDS011;13866;50.748;12.630;2022-09-17T07:11:13;3.53;;;2.60;;
26106;SDS011;13866;50.748;12.630;2022-09-17T07:13:40;6.60;;;2.20;;
26106;SDS011;13866;50.748;12.630;2022-09-17T07:16:06;4.50;;;3.67;;
26106;SDS011;13866;50.748;12.630;2022-09-17T07:18:31;7.53;;;3.80;;
26106;SDS011;13866;50.748;12.630;2022-09-17T07:20:58;5.63;;;3.30;;
26106;SDS011;13866;50.748;12.630;2022-09-17T07:23:28;2.70;;;2.50;;
26106;SDS011;13866;50.748;12.630;2022-09-17T07:25:59;3.97;;;2.70;;
26106;SDS011;13866;50.748;12.630;2022-09-17T07:28:45;11.53;;;3.30;;
26106;SDS011;13866;50.748;12.630;2022-09-17T07:31:11;6.63;;;2.63;;
26106;SDS011;13866;50.748;12.630;2022-09-17T07:33:37;2.60;;;2.40;;
26106;SDS011;13866;50.748;12.630;2022-09-17T07:36:05;2.73;;;2.10;;
26106;SDS011;13866;50.748;12.630;2022-09-17T07:38:41;3.47;;;2.53;;
26106;SDS011;13866;50.748;12.630;2022-09-17T07:41:11;2.63;;;2.40;;
26106;SDS011;13866;50.748;12.630;2022-09-17T07:43:37;3.13;;;2.50;;
26106;SDS011;13866;50.748;12.630;2022-09-17T07:46:04;8.27;;;3.77;;
26106;SDS011;13866;50.748;12.630;2022-09-17T07:48:31;3.60;;;3.30;;
26106;SDS011;13866;50.748;12.630;2022-09-17T07:50:57;6.00;;;3.50;;
26106;SDS011;13866;50.748;12.630;2022-09-17T07:53:22;10.60;;;2.63;;
26106;SDS011;13866;50.748;12.630;2022-09-17T07:55:55;4.43;;;2.70;;
26106;SDS011;13866;50.748;12.630;2022-09-17T07:58:22;3.80;;;2.30;;
26106;SDS011;13866;50.748;12.630;2022-09-17T08:00:58;5.57;;;2.43;;
26106;SDS011;13866;50.748;12.630;2022-09-17T08:03:28;17.87;;;9.00;;
26106;SDS011;13866;50.748;12.630;2022-09-17T08:05:59;5.40;;;2.00;;
26106;SDS011;13866;50.748;12.630;2022-09-17T08:08:29;7.73;;;2.73;;
26106;SDS011;13866;50.748;12.630;2022-09-17T08:10:58;8.47;;;4.53;;
26106;SDS011;13866;50.748;12.630;2022-09-17T08:13:24;11.43;;;2.87;;
26106;SDS011;13866;50.748;12.630;2022-09-17T08:15:50;12.33;;;3.30;;
26106;SDS011;13866;50.748;12.630;2022-09-17T08:18:15;5.83;;;3.70;;
26106;SDS011;13866;50.748;12.630;2022-09-17T08:20:41;14.93;;;2.80;;
26106;SDS011;13866;50.748;12.630;2022-09-17T08:23:07;9.63;;;3.30;;
26106;SDS011;13866;50.748;12.630;2022-09-17T08:25:32;7.17;;;3.03;;
26106;SDS011;13866;50.748;12.630;2022-09-17T08:27:57;10.60;;;3.17;;
26106;SDS011;13866;50.748;12.630;2022-09-17T08:30:23;8.70;;;3.40;;
26106;SDS011;13866;50.748;12.630;2022-09-17T08:32:48;12.77;;;2.00;;
26106;SDS011;13866;50.748;12.630;2022-09-17T08:35:14;10.43;;;2.40;;
26106;SDS011;13866;50.748;12.630;2022-09-17T08:37:40;4.67;;;2.67;;
26106;SDS011;13866;50.748;12.630;2022-09-17T08:40:08;9.73;;;2.63;;
26106;SDS011;13866;50.748;12.630;2022-09-17T08:42:40;5.10;;;2.40;;
26106;SDS011;13866;50.748;12.630;2022-09-17T08:45:15;12.23;;;2.73;;
26106;SDS011;13866;50.748;12.630;2022-09-17T08:47:43;3.43;;;2.10;;
26106;SDS011;13866;50.748;12.630;2022-09-17T08:50:14;4.33;;;2.33;;
26106;SDS011;13866;50.748;12.630;2022-09-17T08:55:42;11.40;;;2.80;;
26106;SDS011;13866;50.748;12.630;2022-09-17T09:04:00;6.20;;;3.17;;
26106;SDS011;13866;50.748;12.630;2022-09-17T09:06:45;3.60;;;1.87;;
26106;SDS011;13866;50.748;12.630;2022-09-17T09:09:17;15.63;;;2.67;;
26106;SDS011;13866;50.748;12.630;2022-09-17T09:11:47;10.73;;;1.93;;
26106;SDS011;13866;50.748;12.630;2022-09-17T09:16:51;3.27;;;2.20;;
26106;SDS011;13866;50.748;12.630;2022-09-17T09:19:21;6.13;;;1.83;;
26106;SDS011;13866;50.748;12.630;2022-09-17T09:27:29;13.57;;;2.27;;
26106;SDS011;13866;50.748;12.630;2022-09-17T09:30:09;5.70;;;2.60;;
26106;SDS011;13866;50.748;12.630;2022-09-17T09:40:44;5.70;;;3.30;;
26106;SDS011;13866;50.748;12.630;2022-09-17T09:43:16;11.43;;;2.73;;
26106;SDS011;13866;50.748;12.630;2022-09-17T09:45:53;2.20;;;2.03;;
26106;SDS011;13866;50.748;12.630;2022-09-17T09:56:33;6.53;;;2.50;;
26106;SDS011;13866;50.748;12.630;2022-09-17T09:59:17;2.43;;;1.70;;
26106;SDS011;13866;50.748;12.630;2022-09-17T10:01:43;6.53;;;2.30;;
26106;SDS011;13866;50.748;12.630;2022-09-17T10:06:44;10.77;;;2.17;;
26106;SDS011;13866;50.748;12.630;2022-09-17T10:09:11;4.00;;;2.13;;
26106;SDS011;13866;50.748;12.630;2022-09-17T10:11:38;15.40;;;2.40;;
26106;SDS011;13866;50.748;12.630;2022-09-17T10:14:23;3.87;;;2.00;;
26106;SDS011;13866;50.748;12.630;2022-09-17T10:16:56;3.03;;;1.70;;
26106;SDS011;13866;50.748;12.630;2022-09-17T10:20:07;2.80;;;1.53;;
26106;SDS011;13866;50.748;12.630;2022-09-17T10:22:49;4.80;;;1.83;;
26106;SDS011;13866;50.748;12.630;2022-09-17T10:28:00;2.03;;;1.50;;
26106;SDS011;13866;50.748;12.630;2022-09-17T10:30:28;2.03;;;1.27;;
26106;SDS011;13866;50.748;12.630;2022-09-17T10:33:09;10.23;;;1.87;;
26106;SDS011;13866;50.748;12.630;2022-09-17T10:35:37;6.87;;;2.03;;
26106;SDS011;13866;50.748;12.630;2022-09-17T10:38:03;10.57;;;2.50;;
26106;SDS011;13866;50.748;12.630;2022-09-17T10:40:29;4.83;;;2.13;;
26106;SDS011;13866;50.748;12.630;2022-09-17T10:45:39;4.07;;;2.37;;
26106;SDS011;13866;50.748;12.630;2022-09-17T10:48:12;7.73;;;2.80;;
26106;SDS011;13866;50.748;12.630;2022-09-17T10:50:40;6.87;;;2.87;;
26106;SDS011;13866;50.748;12.630;2022-09-17T10:53:19;6.87;;;3.10;;
26106;SDS011;13866;50.748;12.630;2022-09-17T10:55:50;6.40;;;2.87;;
26106;SDS011;13866;50.748;12.630;2022-09-17T10:58:36;4.33;;;2.00;;
26106;SDS011;13866;50.748;12.630;2022-09-17T11:01:22;11.20;;;2.63;;
26106;SDS011;13866;50.748;12.630;2022-09-17T11:06:49;10.40;;;2.47;;
26106;SDS011;13866;50.748;12.630;2022-09-17T11:10:00;9.60;;;2.20;;
26106;SDS011;13866;50.748;12.630;2022-09-17T11:20:52;3.77;;;2.67;;
26106;SDS011;13866;50.748;12.630;2022-09-17T11:26:07;12.03;;;3.03;;
26106;SDS011;13866;50.748;12.630;2022-09-17T11:29:04;12.60;;;3.70;;
26106;SDS011;13866;50.748;12.630;2022-09-17T11:31:54;6.80;;;2.60;;
26106;SDS011;13866;50.748;12.630;2022-09-17T11:34:40;6.87;;;3.53;;
26106;SDS011;13866;50.748;12.630;2022-09-17T11:37:12;9.57;;;2.60;;
26106;SDS011;13866;50.748;12.630;2022-09-17T11:40:11;16.53;;;2.70;;
26106;SDS011;13866;50.748;12.630;2022-09-17T11:42:46;7.10;;;2.77;;
26106;SDS011;13866;50.748;12.630;2022-09-17T11:45:19;8.97;;;3.37;;
26106;SDS011;13866;50.748;12.630;2022-09-17T11:48:00;5.40;;;2.90;;
26106;SDS011;13866;50.748;12.630;2022-09-17T11:50:39;2.30;;;2.10;;
26106;SDS011;13866;50.748;12.630;2022-09-17T11:53:24;5.60;;;1.90;;
26106;SDS011;13866;50.748;12.630;2022-09-17T11:55:57;2.17;;;2.00;;
26106;SDS011;13866;50.748;12.630;2022-09-17T11:58:36;8.93;;;2.10;;
26106;SDS011;13866;50.748;12.630;2022-09-17T12:01:16;6.83;;;3.17;;
26106;SDS011;13866;50.748;12.630;2022-09-17T12:03:52;5.47;;;2.80;;
26106;SDS011;13866;50.748;12.630;2022-09-17T12:07:05;17.23;;;2.70;;
26106;SDS011;13866;50.748;12.630;2022-09-17T12:09:27;9.97;;;3.07;;
26106;SDS011;13866;50.748;12.630;2022-09-17T12:12:01;3.40;;;2.27;;
26106;SDS011;13866;50.748;12.630;2022-09-17T12:14:30;11.87;;;4.57;;
26106;SDS011;13866;50.748;12.630;2022-09-17T12:17:23;8.20;;;2.33;;
26106;SDS011;13866;50.748;12.630;2022-09-17T12:19:53;9.07;;;2.80;;
26106;SDS011;13866;50.748;12.630;2022-09-17T12:22:25;11.47;;;2.87;;
26106;SDS011;13866;50.748;12.630;2022-09-17T12:24:53;14.97;;;2.63;;
26106;SDS011;13866;50.748;12.630;2022-09-17T12:27:32;6.90;;;3.00;;
26106;SDS011;13866;50.748;12.630;2022-09-17T12:30:04;11.17;;;2.73;;
26106;SDS011;13866;50.748;12.630;2022-09-17T12:40:50;1.97;;;1.47;;
26106;SDS011;13866;50.748;12.630;2022-09-17T12:46:12;8.53;;;1.60;;
26106;SDS011;13866;50.748;12.630;2022-09-17T12:52:26;5.23;;;2.30;;
26106;SDS011;13866;50.748;12.630;2022-09-17T12:55:30;9.33;;;2.90;;
26106;SDS011;13866;50.748;12.630;2022-09-17T12:58:26;8.47;;;2.50;;
26106;SDS011;13866;50.748;12.630;2022-09-17T13:01:07;8.97;;;3.53;;
26106;SDS011;13866;50.748;12.630;2022-09-17T13:03:48;9.07;;;3.10;;
26106;SDS011;13866;50.748;12.630;2022-09-17T13:06:36;10.03;;;1.97;;
26106;SDS011;13866;50.748;12.630;2022-09-17T13:12:10;8.53;;;2.40;;
26106;SDS011;13866;50.748;12.630;2022-09-17T13:17:10;3.43;;;2.03;;
26106;SDS011;13866;50.748;12.630;2022-09-17T13:20:10;10.67;;;2.70;;
26106;SDS011;13866;50.748;12.630;2022-09-17T13:22:50;4.50;;;1.63;;
26106;SDS011;13866;50.748;12.630;2022-09-17T13:25:18;6.00;;;2.17;;
26106;SDS011;13866;50.748;12.630;2022-09-17T13:27:45;14.37;;;2.67;;
26106;SDS011;13866;50.748;12.630;2022-09-17T13:30:13;5.97;;;1.93;;
26106;SDS011;13866;50.748;12.630;2022-09-17T13:37:30;8.67;;;2.67;;
26106;SDS011;13866;50.748;12.630;2022-09-17T13:39:57;10.83;;;2.50;;
26106;SDS011;13866;50.748;12.630;2022-09-17T13:42:27;6.00;;;1.90;;
26106;SDS011;13866;50.748;12.630;2022-09-17T13:45:02;7.17;;;2.10;;
26106;SDS011;13866;50.748;12.630;2022-09-17T13:47:34;4.73;;;2.40;;
26106;SDS011;13866;50.748;12.630;2022-09-17T13:50:11;4.30;;;2.10;;
26106;SDS011;13866;50.748;12.630;2022-09-17T13:52:57;7.30;;;2.17;;
26106;SDS011;13866;50.748;12.630;2022-09-17T13:57:58;6.83;;;2.70;;
26106;SDS011;13866;50.748;12.630;2022-09-17T14:05:52;7.93;;;1.77;;
26106;SDS011;13866;50.748;12.630;2022-09-17T14:08:26;7.33;;;2.30;;
26106;SDS011;13866;50.748;12.630;2022-09-17T14:10:54;4.73;;;2.27;;
26106;SDS011;13866;50.748;12.630;2022-09-17T14:13:23;1.87;;;1.03;;
26106;SDS011;13866;50.748;12.630;2022-09-17T14:15:54;3.30;;;1.80;;
26106;SDS011;13866;50.748;12.630;2022-09-17T14:20:52;4.00;;;1.67;;
26106;SDS011;13866;50.748;12.630;2022-09-17T14:23:34;4.70;;;0.97;;
26106;SDS011;13866;50.748;12.630;2022-09-17T14:26:09;3.13;;;1.13;;
26106;SDS011;13866;50.748;12.630;2022-09-17T14:28:54;2.70;;;1.23;;
26106;SDS011;13866;50.748;12.630;2022-09-17T14:31:30;6.77;;;1.30;;
26106;SDS011;13866;50.748;12.630;2022-09-17T14:34:01;4.67;;;1.10;;
26106;SDS011;13866;50.748;12.630;2022-09-17T14:36:29;3.87;;;1.47;;
26106;SDS011;13866;50.748;12.630;2022-09-17T14:39:00;3.23;;;1.77;;
26106;SDS011;13866;50.748;12.630;2022-09-17T14:41:31;1.50;;;1.40;;
26106;SDS011;13866;50.748;12.630;2022-09-17T14:44:06;2.03;;;1.60;;
26106;SDS011;13866;50.748;12.630;2022-09-17T14:46:42;2.70;;;1.70;;
26106;SDS011;13866;50.748;12.630;2022-09-17T14:49:25;6.10;;;1.30;;
26106;SDS011;13866;50.748;12.630;2022-09-17T14:51:53;4.00;;;1.47;;
26106;SDS011;13866;50.748;12.630;2022-09-17T14:54:21;7.20;;;1.60;;
26106;SDS011;13866;50.748;12.630;2022-09-17T14:56:56;6.93;;;1.93;;
26106;SDS011;13866;50.748;12.630;2022-09-17T15:02:26;5.13;;;1.60;;
26106;SDS011;13866;50.748;12.630;2022-09-17T15:04:53;3.63;;;1.30;;
26106;SDS011;13866;50.748;12.630;2022-09-17T15:07:19;4.43;;;1.43;;
26106;SDS011;13866;50.748;12.630;2022-09-17T15:09:45;6.03;;;1.70;;
26106;SDS011;13866;50.748;12.630;2022-09-17T15:12:12;2.63;;;1.30;;
26106;SDS011;13866;50.748;12.630;2022-09-17T15:14:41;5.30;;;1.07;;
26106;SDS011;13866;50.748;12.630;2022-09-17T15:17:16;17.03;;;2.20;;
26106;SDS011;13866;50.748;12.630;2022-09-17T15:19:44;3.30;;;1.80;;
26106;SDS011;13866;50.748;12.630;2022-09-17T15:22:15;4.60;;;1.73;;
26106;SDS011;13866;50.748;12.630;2022-09-17T15:27:35;3.40;;;1.63;;
26106;SDS011;13866;50.748;12.630;2022-09-17T15:30:04;3.43;;;2.00;;
26106;SDS011;13866;50.748;12.630;2022-09-17T15:32:37;9.63;;;2.03;;
26106;SDS011;13866;50.748;12.630;2022-09-17T15:35:15;1.53;;;1.43;;
26106;SDS011;13866;50.748;12.630;2022-09-17T15:37:55;5.17;;;1.83;;
26106;SDS011;13866;50.748;12.630;2022-09-17T15:40:30;3.53;;;1.40;;
26106;SDS011;13866;50.748;12.630;2022-09-17T15:43:02;1.10;;;0.90;;
26106;SDS011;13866;50.748;12.630;2022-09-17T15:45:29;1.67;;;1.57;;
26106;SDS011;13866;50.748;12.630;2022-09-17T15:47:57;4.53;;;1.40;;
26106;SDS011;13866;50.748;12.630;2022-09-17T15:50:25;3.10;;;1.53;;
26106;SDS011;13866;50.748;12.630;2022-09-17T15:55:46;2.63;;;1.30;;
26106;SDS011;13866;50.748;12.630;2022-09-17T15:58:26;7.20;;;1.90;;
26106;SDS011;13866;50.748;12.630;2022-09-17T16:11:18;2.83;;;1.30;;
26106;SDS011;13866;50.748;12.630;2022-09-17T16:13:45;2.13;;;1.50;;
26106;SDS011;13866;50.748;12.630;2022-09-17T16:16:15;1.20;;;1.10;;
26106;SDS011;13866;50.748;12.630;2022-09-17T16:18:42;4.40;;;1.53;;
26106;SDS011;13866;50.748;12.630;2022-09-17T16:21:11;1.80;;;1.20;;
26106;SDS011;13866;50.748;12.630;2022-09-17T16:23:38;5.50;;;1.17;;
26106;SDS011;13866;50.748;12.630;2022-09-17T16:26:04;3.13;;;1.20;;
26106;SDS011;13866;50.748;12.630;2022-09-17T16:28:31;7.97;;;1.50;;
26106;SDS011;13866;50.748;12.630;2022-09-17T16:30:57;1.00;;;1.00;;
26106;SDS011;13866;50.748;12.630;2022-09-17T16:33:23;1.90;;;1.80;;
26106;SDS011;13866;50.748;12.630;2022-09-17T16:35:52;2.23;;;1.90;;
26106;SDS011;13866;50.748;12.630;2022-09-17T16:38:21;6.03;;;2.80;;
26106;SDS011;13866;50.748;12.630;2022-09-17T16:40:46;3.20;;;1.50;;
26106;SDS011;13866;50.748;12.630;2022-09-17T16:43:12;3.73;;;0.90;;
26106;SDS011;13866;50.748;12.630;2022-09-17T16:45:37;3.40;;;1.27;;
26106;SDS011;13866;50.748;12.630;2022-09-17T16:48:03;1.07;;;0.70;;
26106;SDS011;13866;50.748;12.630;2022-09-17T16:50:29;1.47;;;0.70;;
26106;SDS011;13866;50.748;12.630;2022-09-17T16:52:55;3.70;;;1.70;;
26106;SDS011;13866;50.748;12.630;2022-09-17T16:55:21;2.50;;;1.00;;
26106;SDS011;13866;50.748;12.630;2022-09-17T16:57:46;0.80;;;0.80;;
26106;SDS011;13866;50.748;12.630;2022-09-17T17:00:13;0.93;;;0.93;;
26106;SDS011;13866;50.748;12.630;2022-09-17T17:02:42;1.33;;;1.00;;
26106;SDS011;13866;50.748;12.630;2022-09-17T17:05:09;1.47;;;1.20;;
26106;SDS011;13866;50.748;12.630;2022-09-17T17:07:35;2.47;;;1.70;;
26106;SDS011;13866;50.748;12.630;2022-09-17T17:10:00;2.33;;;1.83;;